Time;durP1;ratioP1;P1;durP2;ratioP2;P2;SDS_P1;SDS_P2;PMS_P1;PMS_P2;Temp;Humidity;BMP_temperature;BMP_pressure;BME280_temperature;BME280_humidity;BME280_pressure;Samples;Min_cycle;Max_cycle;Signal;HPM_P1;HPM_P2
2022/06/11 00:01:26;;;;;;;2.08;1.88;;;;;;;21.24;53.43;102021.97;5089899;28;20394;-62
2022/06/11 00:03:55;;;;;;;2.67;1.75;;;;;;;21.25;53.31;102026.38;5107738;28;20034;-62
2022/06/11 00:06:21;;;;;;;3.38;1.98;;;;;;;21.24;53.29;102027.38;5089514;28;20035;-62
2022/06/11 00:08:47;;;;;;;2.60;1.83;;;;;;;21.23;53.19;102018.38;5108952;28;20107;-63
2022/06/11 00:11:13;;;;;;;2.70;1.90;;;;;;;21.20;53.13;102013.31;5115490;28;20028;-63
2022/06/11 00:13:41;;;;;;;2.00;1.80;;;;;;;21.24;53.22;102024.69;5127516;28;20019;-63
2022/06/11 00:16:07;;;;;;;2.50;1.73;;;;;;;21.22;53.14;102016.69;5109502;28;20035;-63
2022/06/11 00:18:36;;;;;;;2.88;1.80;;;;;;;21.24;53.37;102016.56;5127785;28;20023;-63
2022/06/11 00:21:03;;;;;;;2.92;2.00;;;;;;;21.23;53.51;102020.25;5127922;28;20065;-63
2022/06/11 00:23:28;;;;;;;4.15;2.50;;;;;;;21.18;53.51;102009.06;5125150;28;20070;-63
2022/06/11 00:25:54;;;;;;;2.30;1.60;;;;;;;21.23;53.54;102015.69;5109503;28;20039;-63
2022/06/11 00:28:20;;;;;;;3.47;2.42;;;;;;;21.17;53.44;102005.50;5127490;28;20106;-63
2022/06/11 00:30:45;;;;;;;4.38;1.90;;;;;;;21.23;53.57;102012.97;5127344;28;20411;-62
2022/06/11 00:33:11;;;;;;;1.60;1.50;;;;;;;21.22;53.56;102011.28;5127402;28;20374;-62
2022/06/11 00:35:38;;;;;;;3.83;1.70;;;;;;;21.21;53.11;102014.16;5127484;28;20031;-62
2022/06/11 00:38:04;;;;;;;2.20;1.70;;;;;;;21.22;53.54;102014.00;5127505;28;20034;-62
2022/06/11 00:40:31;;;;;;;2.13;1.70;;;;;;;21.22;53.29;102010.44;5108715;28;20036;-62
2022/06/11 00:42:56;;;;;;;2.08;1.48;;;;;;;21.21;53.36;102011.47;5087570;28;20488;-63
2022/06/11 00:45:35;;;;;;;2.00;1.58;;;;;;;21.21;53.12;102009.59;5106503;28;20047;-63
2022/06/11 00:48:09;;;;;;;2.13;1.65;;;;;;;21.22;53.55;102007.75;5114707;28;20038;-63
2022/06/11 00:50:40;;;;;;;2.88;1.95;;;;;;;21.21;53.25;102006.91;5109082;28;20479;-63
2022/06/11 00:53:30;;;;;;;2.95;1.60;;;;;;;21.20;53.07;102002.50;5108799;28;20020;-63
2022/06/11 00:55:56;;;;;;;2.95;1.75;;;;;;;21.16;53.16;101997.56;5126505;28;20545;-63
2022/06/11 00:58:25;;;;;;;1.70;1.30;;;;;;;21.21;53.10;102006.06;5127205;28;20087;-63
2022/06/11 01:00:54;;;;;;;3.15;1.77;;;;;;;21.19;53.13;102006.19;5108591;28;20426;-63
2022/06/11 01:03:38;;;;;;;4.43;1.95;;;;;;;21.21;53.08;102004.19;5094204;28;20023;-63
2022/06/11 01:06:21;;;;;;;2.65;2.10;;;;;;;21.20;53.40;102002.50;5109771;28;20024;-63
2022/06/11 01:09:01;;;;;;;2.72;1.70;;;;;;;21.20;53.14;102007.91;5120612;28;20040;-62
2022/06/11 01:11:52;;;;;;;3.63;1.90;;;;;;;21.09;53.01;101994.63;5118967;28;20031;-63
2022/06/11 01:14:26;;;;;;;2.55;1.73;;;;;;;21.20;53.08;102009.78;5126307;28;20036;-63
2022/06/11 01:16:57;;;;;;;1.40;1.30;;;;;;;21.20;53.23;102002.50;5120658;28;20488;-63
2022/06/11 01:19:37;;;;;;;2.08;1.83;;;;;;;21.20;53.19;102002.50;5101271;28;20036;-63
2022/06/11 01:22:32;;;;;;;2.22;1.63;;;;;;;21.19;53.34;102002.63;5116132;28;20022;-63
2022/06/11 01:25:16;;;;;;;2.00;1.50;;;;;;;21.19;53.35;102005.34;5126546;28;20057;-63
2022/06/11 01:27:59;;;;;;;4.20;2.13;;;;;;;21.19;53.14;102003.47;5106104;28;20038;-63
2022/06/11 01:30:26;;;;;;;3.95;1.80;;;;;;;21.18;53.28;102009.06;5104337;28;20034;-63
2022/06/11 01:33:11;;;;;;;3.03;1.70;;;;;;;21.18;53.00;102003.66;5108146;28;20039;-63
2022/06/11 01:35:42;;;;;;;2.78;1.70;;;;;;;21.17;53.01;101997.41;5110149;28;20028;-63
2022/06/11 01:38:33;;;;;;;2.22;1.60;;;;;;;21.18;53.07;101995.53;5088020;28;20032;-63
2022/06/11 01:41:22;;;;;;;2.25;1.90;;;;;;;21.18;53.01;102001.78;5078052;28;20043;-63
2022/06/11 01:43:49;;;;;;;2.00;1.70;;;;;;;21.17;53.00;102002.81;5087362;28;20051;-63
2022/06/11 01:46:19;;;;;;;1.88;1.60;;;;;;;21.15;52.93;101996.72;5087426;28;20027;-63
2022/06/11 01:49:02;;;;;;;2.00;1.80;;;;;;;21.17;52.82;101993.84;5105769;28;20118;-63
2022/06/11 01:51:34;;;;;;;2.42;1.73;;;;;;;21.17;53.01;101992.00;5111854;28;20431;-63
2022/06/11 01:54:40;;;;;;;2.35;1.80;;;;;;;21.16;53.20;101994.84;5125598;28;20031;-63
2022/06/11 01:57:17;;;;;;;2.10;1.48;;;;;;;21.16;52.95;101989.44;5042952;28;20045;-63
2022/06/11 02:00:16;;;;;;;4.28;1.70;;;;;;;21.17;53.23;101996.56;5041783;28;20072;-63
2022/06/11 02:02:47;;;;;;;1.42;1.27;;;;;;;21.16;53.01;101992.16;5043055;28;20036;-63
2022/06/11 02:05:24;;;;;;;2.30;1.50;;;;;;;21.15;53.15;101985.91;5042906;28;20025;-63
2022/06/11 02:07:56;;;;;;;2.15;1.40;;;;;;;21.15;53.21;101985.03;5042738;28;20033;-63
2022/06/11 02:10:48;;;;;;;3.05;1.85;;;;;;;21.11;52.89;101989.94;5042953;28;20030;-63
2022/06/11 02:13:18;;;;;;;2.83;1.60;;;;;;;21.13;52.93;101993.31;5042703;28;20117;-63
2022/06/11 02:15:50;;;;;;;1.77;1.42;;;;;;;21.11;53.21;101980.94;5042483;28;20025;-63
2022/06/11 02:18:18;;;;;;;2.53;1.50;;;;;;;21.13;53.15;101985.19;5042998;28;20030;-63
2022/06/11 02:20:49;;;;;;;2.70;1.63;;;;;;;21.12;53.16;101985.38;5042996;28;20029;-63
2022/06/11 02:23:38;;;;;;;2.95;1.75;;;;;;;21.12;52.87;101990.78;5040887;28;20099;-63
2022/06/11 02:26:09;;;;;;;1.52;1.23;;;;;;;21.12;52.97;101991.63;5032982;28;20062;-63
2022/06/11 02:28:41;;;;;;;2.20;1.65;;;;;;;21.11;52.89;101987.22;5006548;28;20046;-63
2022/06/11 02:31:08;;;;;;;2.17;1.40;;;;;;;21.09;52.94;101988.38;5022515;28;20034;-63
2022/06/11 02:33:35;;;;;;;2.05;1.40;;;;;;;21.12;53.05;101993.47;5080991;28;20134;-63
2022/06/11 02:36:24;;;;;;;2.42;1.60;;;;;;;21.10;52.60;101993.59;5105299;28;20119;-64
2022/06/11 02:38:51;;;;;;;3.00;1.55;;;;;;;21.10;52.77;101995.47;5105221;28;20134;-63
2022/06/11 02:41:23;;;;;;;2.58;1.50;;;;;;;21.10;52.79;101996.31;5105045;28;20040;-63
2022/06/11 02:43:48;;;;;;;2.15;1.40;;;;;;;21.09;52.84;101997.34;5086759;28;20488;-63
2022/06/11 02:48:58;;;;;;;2.22;1.40;;;;;;;21.09;52.92;102007.31;5105054;28;20183;-63
2022/06/11 02:51:26;;;;;;;2.78;1.48;;;;;;;21.07;52.88;102006.59;5105205;28;20520;-63
2022/06/11 02:53:51;;;;;;;2.80;1.70;;;;;;;21.08;52.54;102006.47;5087083;28;20040;-62
2022/06/11 02:56:17;;;;;;;1.88;1.33;;;;;;;21.07;52.63;102006.59;5105167;28;20162;-64
2022/06/11 02:58:43;;;;;;;1.90;1.63;;;;;;;21.04;52.78;102002.38;5105311;28;20476;-63
2022/06/11 03:01:09;;;;;;;2.97;1.60;;;;;;;21.07;52.65;102018.28;5104753;28;20040;-63
2022/06/11 03:03:35;;;;;;;5.03;2.55;;;;;;;21.06;52.59;102013.00;5105338;28;20032;-63
2022/06/11 03:06:01;;;;;;;2.58;1.40;;;;;;;21.05;52.73;102012.16;5107319;28;20027;-63
2022/06/11 03:08:27;;;;;;;3.22;1.60;;;;;;;21.05;52.78;102017.56;5117771;28;20046;-62
2022/06/11 03:10:54;;;;;;;1.80;1.45;;;;;;;21.06;52.53;102023.84;5121805;28;20125;-63
2022/06/11 03:13:24;;;;;;;2.05;1.48;;;;;;;21.06;52.74;102021.97;5121499;28;20016;-64
2022/06/11 03:15:49;;;;;;;2.55;1.45;;;;;;;21.05;52.51;102016.72;5103762;28;20020;-64
2022/06/11 03:18:15;;;;;;;2.50;1.67;;;;;;;21.04;52.59;102024.00;5113397;28;20034;-63
2022/06/11 03:20:41;;;;;;;1.90;1.55;;;;;;;21.04;52.52;102017.75;5090680;28;20027;-64
2022/06/11 03:23:07;;;;;;;2.42;1.58;;;;;;;21.03;52.71;102025.00;5110967;28;20036;-63
2022/06/11 03:25:33;;;;;;;2.13;1.60;;;;;;;21.01;52.23;102020.75;5123392;28;20094;-63
2022/06/11 03:27:58;;;;;;;2.35;1.55;;;;;;;21.02;52.33;102026.00;5108422;28;20032;-63
2022/06/11 03:30:25;;;;;;;1.95;1.15;;;;;;;21.03;52.55;102018.75;5107987;28;20032;-63
2022/06/11 03:32:50;;;;;;;1.80;1.20;;;;;;;21.02;52.49;102026.00;5108487;28;20027;-63
2022/06/11 03:35:15;;;;;;;2.47;1.83;;;;;;;20.99;52.26;102025.47;5108394;28;20032;-63
2022/06/11 03:37:41;;;;;;;2.67;1.58;;;;;;;21.01;52.16;102040.53;5108499;28;20016;-63
2022/06/11 03:40:08;;;;;;;2.08;1.40;;;;;;;21.02;52.30;102036.81;5108402;28;20039;-63
2022/06/11 03:42:33;;;;;;;1.70;1.27;;;;;;;20.90;52.28;102025.41;5107678;28;20040;-63
2022/06/11 03:44:59;;;;;;;2.33;1.60;;;;;;;21.02;52.11;102044.06;5107666;28;20081;-63
2022/06/11 03:47:24;;;;;;;1.75;1.40;;;;;;;21.01;52.25;102043.22;5108370;28;20043;-64
2022/06/11 03:49:50;;;;;;;2.42;1.50;;;;;;;21.01;52.41;102050.50;5107925;28;20031;-64
2022/06/11 03:52:15;;;;;;;2.80;1.40;;;;;;;20.94;52.31;102040.31;5107769;28;20039;-63
2022/06/11 03:54:40;;;;;;;3.42;2.20;;;;;;;21.00;52.06;102051.50;5107639;28;20150;-63
2022/06/11 03:57:06;;;;;;;1.70;1.60;;;;;;;21.00;52.23;102054.22;5108019;28;20032;-63
2022/06/11 03:59:32;;;;;;;2.63;1.50;;;;;;;21.00;52.03;102056.91;5107532;28;20023;-63
2022/06/11 04:01:57;;;;;;;2.58;1.63;;;;;;;21.00;52.18;102051.50;5089509;28;20015;-60
2022/06/11 04:04:23;;;;;;;1.95;1.27;;;;;;;20.98;52.23;102059.75;5107969;28;20091;-63
2022/06/11 04:06:52;;;;;;;2.17;1.50;;;;;;;20.98;52.29;102059.75;5107925;28;20024;-63
2022/06/11 04:09:29;;;;;;;2.17;1.70;;;;;;;20.93;52.35;102056.66;5107640;28;20089;-63
2022/06/11 04:11:55;;;;;;;2.25;1.50;;;;;;;20.95;52.33;102063.63;5107372;28;20420;-63
2022/06/11 04:14:20;;;;;;;1.75;1.20;;;;;;;20.97;52.14;102069.72;5117014;28;20031;-62
2022/06/11 04:16:49;;;;;;;3.35;1.30;;;;;;;20.97;52.04;102071.56;5126760;28;20035;-63
2022/06/11 04:19:39;;;;;;;4.25;1.80;;;;;;;20.97;52.25;102077.81;5127855;28;20020;-62
2022/06/11 04:22:05;;;;;;;3.33;2.72;;;;;;;20.97;51.93;102076.97;5116575;28;20041;-62
2022/06/11 04:24:31;;;;;;;1.58;1.30;;;;;;;20.91;51.88;102073.06;5089188;28;20107;-63
2022/06/11 04:26:58;;;;;;;3.22;1.30;;;;;;;20.95;52.22;102073.59;5124596;28;20472;-62
2022/06/11 04:29:27;;;;;;;1.92;1.45;;;;;;;20.96;52.01;102088.81;5108821;28;20059;-62
2022/06/11 04:31:55;;;;;;;1.58;1.35;;;;;;;20.96;52.01;102094.22;5127718;28;20051;-62
2022/06/11 04:34:21;;;;;;;2.88;1.40;;;;;;;20.96;51.76;102096.91;5127391;28;20031;-63
2022/06/11 04:36:48;;;;;;;1.90;1.50;;;;;;;20.96;52.06;102096.91;5127469;28;20020;-62
2022/06/11 04:39:15;;;;;;;2.53;1.25;;;;;;;20.95;52.05;102109.59;5127549;28;20023;-63
2022/06/11 04:41:41;;;;;;;2.70;1.33;;;;;;;20.96;51.81;102105.03;5126986;28;20040;-63
2022/06/11 04:44:07;;;;;;;3.15;1.38;;;;;;;20.94;51.61;102109.72;5126321;28;20019;-63
2022/06/11 04:46:32;;;;;;;2.00;1.80;;;;;;;20.88;52.01;102094.13;5107040;28;20093;-63
2022/06/11 04:48:59;;;;;;;4.10;2.00;;;;;;;20.94;51.64;102107.03;5106856;28;20023;-63
2022/06/11 04:51:24;;;;;;;3.08;1.70;;;;;;;20.94;51.90;102104.31;5106831;28;20026;-64
2022/06/11 04:53:49;;;;;;;2.35;1.33;;;;;;;20.94;51.56;102107.03;5106705;28;20032;-63
2022/06/11 04:56:18;;;;;;;2.20;1.30;;;;;;;20.87;51.91;102096.00;5106596;28;20024;-64
2022/06/11 04:58:44;;;;;;;3.42;1.52;;;;;;;20.93;51.67;102108.88;5106693;28;20020;-63
2022/06/11 05:01:10;;;;;;;5.25;1.77;;;;;;;20.94;51.90;102120.53;5106139;28;20089;-63
2022/06/11 05:03:37;;;;;;;1.70;1.40;;;;;;;20.92;51.88;102106.34;5105986;28;20388;-63
2022/06/11 05:06:02;;;;;;;3.35;1.80;;;;;;;20.93;51.71;102103.47;5104698;28;20050;-63
2022/06/11 05:08:27;;;;;;;2.72;1.42;;;;;;;20.85;51.87;102099.84;5106276;28;20020;-63
2022/06/11 05:10:53;;;;;;;3.35;1.38;;;;;;;20.92;51.58;102112.59;5106213;28;20028;-63
2022/06/11 05:13:18;;;;;;;2.65;1.30;;;;;;;20.92;51.92;102112.59;5109271;28;20028;-63
2022/06/11 05:15:46;;;;;;;2.42;1.50;;;;;;;20.92;51.84;102114.44;5126204;28;20032;-63
2022/06/11 05:18:13;;;;;;;2.90;1.48;;;;;;;20.83;51.72;102108.09;5108378;28;20086;-64
2022/06/11 05:20:38;;;;;;;4.32;2.15;;;;;;;20.92;51.43;102115.28;5126633;28;20016;-63
2022/06/11 05:23:05;;;;;;;2.38;1.60;;;;;;;20.92;51.52;102120.69;5108035;28;20068;-63
2022/06/11 05:25:32;;;;;;;5.18;1.80;;;;;;;20.92;51.47;102114.44;5121342;28;20160;-63
2022/06/11 05:27:57;;;;;;;2.22;1.63;;;;;;;20.92;51.67;102122.56;5105644;28;20046;-63
2022/06/11 05:30:26;;;;;;;2.45;1.42;;;;;;;20.92;51.38;102123.41;5105463;28;20027;-63
2022/06/11 05:32:52;;;;;;;3.22;1.70;;;;;;;20.93;51.87;102127.81;5106058;28;20024;-63
2022/06/11 05:35:21;;;;;;;4.82;1.60;;;;;;;20.94;51.42;102136.75;5106033;28;20114;-63
2022/06/11 05:37:48;;;;;;;4.63;2.47;;;;;;;20.90;51.66;102117.31;5105994;28;20020;-62
2022/06/11 05:40:17;;;;;;;4.25;1.63;;;;;;;20.92;51.43;102130.66;5106089;28;20034;-64
2022/06/11 05:42:47;;;;;;;2.72;1.48;;;;;;;20.64;51.62;102092.84;5105468;28;20055;-62
2022/06/11 05:45:16;;;;;;;3.85;1.60;;;;;;;20.91;51.75;102132.53;5105492;28;20035;-64
2022/06/11 05:47:44;;;;;;;3.95;1.88;;;;;;;20.91;51.60;102126.28;5105756;28;20031;-64
2022/06/11 05:50:11;;;;;;;3.28;2.08;;;;;;;20.91;51.43;102127.13;5087710;28;20055;-64
2022/06/11 05:52:38;;;;;;;3.42;1.20;;;;;;;20.91;51.88;102131.69;5087672;28;20542;-64
2022/06/11 05:55:04;;;;;;;5.30;1.73;;;;;;;20.88;51.52;102127.41;5105587;28;20055;-64
2022/06/11 05:57:29;;;;;;;5.10;2.72;;;;;;;20.91;51.67;102129.81;5087285;28;20032;-63
2022/06/11 06:00:00;;;;;;;4.90;1.88;;;;;;;20.91;51.71;102126.28;5087154;28;20039;-64
2022/06/11 06:02:26;;;;;;;3.70;1.38;;;;;;;20.90;51.86;102133.53;5087288;28;20039;-63
2022/06/11 06:04:51;;;;;;;3.70;1.73;;;;;;;20.90;51.45;102133.53;5105496;28;20036;-64
2022/06/11 06:07:16;;;;;;;3.33;1.63;;;;;;;20.91;51.80;102137.09;5105343;28;20062;-63
2022/06/11 06:09:42;;;;;;;4.40;1.90;;;;;;;20.91;51.47;102139.78;5105345;28;20512;-63
2022/06/11 06:12:08;;;;;;;4.78;1.60;;;;;;;20.91;51.59;102137.09;5104929;28;20072;-62
2022/06/11 06:14:33;;;;;;;4.32;1.98;;;;;;;20.90;51.65;102140.81;5115438;28;20027;-62
2022/06/11 06:16:59;;;;;;;3.20;1.30;;;;;;;20.90;51.74;102141.66;5105706;28;20024;-64
2022/06/11 06:19:24;;;;;;;3.47;1.58;;;;;;;20.90;51.45;102140.81;5105390;28;20047;-63
2022/06/11 06:21:49;;;;;;;4.22;1.48;;;;;;;20.89;51.64;102145.31;5105383;28;20028;-63
2022/06/11 06:24:15;;;;;;;4.82;1.65;;;;;;;20.91;52.04;102142.50;5105055;28;20050;-63
2022/06/11 06:26:40;;;;;;;5.35;1.88;;;;;;;20.91;51.72;102154.16;5120368;28;20028;-62
2022/06/11 06:29:06;;;;;;;2.90;1.42;;;;;;;20.86;51.55;102134.84;5125568;28;20031;-63
2022/06/11 06:31:31;;;;;;;4.25;1.77;;;;;;;20.92;51.66;102146.88;5125366;28;20501;-64
2022/06/11 06:33:59;;;;;;;4.10;1.92;;;;;;;20.91;51.64;102147.91;5107163;28;20027;-62
2022/06/11 06:36:25;;;;;;;4.68;1.73;;;;;;;20.92;51.67;102149.59;5125432;28;20106;-59
2022/06/11 06:38:51;;;;;;;5.10;1.90;;;;;;;20.89;51.62;102136.38;5125592;28;20023;-63
2022/06/11 06:41:17;;;;;;;3.72;1.83;;;;;;;20.91;51.47;102140.63;5128086;28;20123;-66
2022/06/11 06:43:42;;;;;;;3.88;2.00;;;;;;;20.84;51.74;102130.56;5120291;28;20024;-63
2022/06/11 06:46:07;;;;;;;6.18;1.92;;;;;;;20.89;51.91;102148.03;5109262;28;20024;-64
2022/06/11 06:48:33;;;;;;;7.97;2.17;;;;;;;20.92;51.89;102155.84;5109632;28;20032;-64
2022/06/11 06:50:59;;;;;;;5.20;1.80;;;;;;;20.92;51.73;102152.28;5109257;28;20035;-62
2022/06/11 06:53:25;;;;;;;4.72;1.80;;;;;;;20.92;51.62;102145.03;5129712;28;20027;-62
2022/06/11 06:55:51;;;;;;;5.00;2.17;;;;;;;20.93;51.44;102148.59;5130341;28;20019;-64
2022/06/11 06:58:16;;;;;;;4.97;1.75;;;;;;;20.93;51.61;102152.13;5129525;28;20545;-64
2022/06/11 07:00:43;;;;;;;3.70;1.73;;;;;;;20.94;51.49;102147.56;5129051;28;20028;-64
2022/06/11 07:03:11;;;;;;;4.30;1.85;;;;;;;20.92;51.70;102152.28;5129408;28;20415;-64
2022/06/11 07:05:36;;;;;;;5.68;2.22;;;;;;;20.91;51.76;102153.31;5129610;28;20042;-63
2022/06/11 07:08:01;;;;;;;5.68;2.00;;;;;;;20.95;51.39;102152.00;5129458;28;20023;-64
2022/06/11 07:10:27;;;;;;;7.07;2.97;;;;;;;20.95;51.49;102157.41;5129972;28;20087;-64
2022/06/11 07:12:53;;;;;;;8.48;2.55;;;;;;;20.96;51.74;102157.25;5125909;28;20027;-63
2022/06/11 07:15:19;;;;;;;6.28;2.10;;;;;;;20.96;51.33;102148.28;5108939;28;20020;-63
2022/06/11 07:18:02;;;;;;;8.43;2.40;;;;;;;20.98;51.78;102151.69;5109057;28;20030;-63
2022/06/11 07:20:29;;;;;;;4.07;1.73;;;;;;;20.97;51.50;102147.28;5108895;28;20103;-65
2022/06/11 07:23:04;;;;;;;8.35;2.20;;;;;;;20.99;51.46;102157.97;5090351;28;20027;-64
2022/06/11 07:25:30;;;;;;;4.45;1.92;;;;;;;20.98;51.72;102146.28;5113754;28;20044;-63
2022/06/11 07:28:00;;;;;;;6.53;1.65;;;;;;;20.99;51.72;102153.41;5128789;28;20030;-64
2022/06/11 07:30:27;;;;;;;6.95;3.38;;;;;;;21.00;51.45;102146.13;5110008;28;20020;-63
2022/06/11 07:33:00;;;;;;;5.88;2.28;;;;;;;21.01;51.45;102153.25;5093623;28;20023;-64
2022/06/11 07:35:25;;;;;;;6.53;2.05;;;;;;;20.99;51.80;102155.25;5110349;28;20357;-63
2022/06/11 07:37:51;;;;;;;5.85;1.98;;;;;;;21.03;51.33;102156.66;5128735;28;20035;-63
2022/06/11 07:40:18;;;;;;;8.43;2.35;;;;;;;20.98;51.75;102146.28;5110302;28;20030;-64
2022/06/11 07:42:43;;;;;;;8.07;2.83;;;;;;;20.94;51.74;102139.47;5125364;28;20061;-63
2022/06/11 07:45:09;;;;;;;5.88;2.10;;;;;;;21.04;51.83;102151.09;5107315;28;20020;-63
2022/06/11 07:47:53;;;;;;;7.00;2.38;;;;;;;21.06;51.57;102150.91;5108017;28;20024;-64
2022/06/11 07:50:18;;;;;;;4.63;2.10;;;;;;;21.07;51.62;102158.03;5107855;28;20108;-63
2022/06/11 07:52:44;;;;;;;8.75;2.30;;;;;;;21.07;51.69;102148.09;5107931;28;20552;-63
2022/06/11 07:55:10;;;;;;;6.20;2.10;;;;;;;21.06;51.63;102146.34;5107507;28;20464;-63
2022/06/11 07:57:36;;;;;;;7.40;2.20;;;;;;;21.10;51.55;102155.03;5108014;28;20031;-63
2022/06/11 08:00:03;;;;;;;8.05;2.53;;;;;;;21.11;51.26;102159.41;5107252;28;20031;-63
2022/06/11 08:02:28;;;;;;;8.45;2.40;;;;;;;21.12;51.56;102172.81;5107613;28;20051;-63
2022/06/11 08:04:54;;;;;;;9.27;2.40;;;;;;;21.15;51.42;102169.81;5107517;28;20024;-63
2022/06/11 08:07:19;;;;;;;7.20;2.88;;;;;;;21.17;51.46;102177.75;5107680;28;20049;-63
2022/06/11 08:09:44;;;;;;;7.03;2.10;;;;;;;21.18;51.61;102172.19;5107367;28;20855;-64
2022/06/11 08:12:10;;;;;;;6.50;2.30;;;;;;;21.19;51.62;102168.47;5107232;28;20090;-63
2022/06/11 08:14:35;;;;;;;7.32;2.10;;;;;;;21.21;51.32;102171.03;5126836;28;20027;-63
2022/06/11 08:17:00;;;;;;;7.93;2.30;;;;;;;21.21;51.13;102171.88;5128046;28;20053;-63
2022/06/11 08:19:25;;;;;;;7.80;2.47;;;;;;;21.24;51.13;102178.84;5127684;28;20055;-64
2022/06/11 08:21:51;;;;;;;5.47;2.10;;;;;;;21.25;51.40;102180.56;5127988;28;20030;-64
2022/06/11 08:24:16;;;;;;;7.60;2.67;;;;;;;21.25;51.03;102177.84;5125568;28;20036;-63
2022/06/11 08:26:41;;;;;;;7.30;2.20;;;;;;;21.27;51.48;102180.38;5112260;28;20059;-63
2022/06/11 08:29:07;;;;;;;8.18;2.67;;;;;;;21.26;51.42;102179.53;5107106;28;20050;-63
2022/06/11 08:31:32;;;;;;;7.57;2.30;;;;;;;21.28;51.30;102177.53;5106880;28;20024;-64
2022/06/11 08:33:57;;;;;;;6.35;2.28;;;;;;;21.30;51.29;102185.50;5107067;28;20546;-63
2022/06/11 08:36:22;;;;;;;5.65;2.08;;;;;;;21.30;51.11;102178.22;5107308;28;20477;-63
2022/06/11 08:38:48;;;;;;;9.38;3.28;;;;;;;21.31;51.30;102182.63;5107050;28;20039;-63
2022/06/11 08:41:19;;;;;;;9.60;2.65;;;;;;;21.31;51.35;102179.91;5106799;28;20034;-63
2022/06/11 08:44:00;;;;;;;8.52;2.33;;;;;;;21.32;51.07;102181.66;5090939;28;20851;-64
2022/06/11 08:46:32;;;;;;;7.43;2.28;;;;;;;21.34;51.19;102182.34;5088456;28;20484;-64
2022/06/11 08:49:04;;;;;;;7.82;2.75;;;;;;;21.35;51.23;102184.06;5088737;28;20027;-63
2022/06/11 08:51:44;;;;;;;5.30;2.08;;;;;;;21.36;51.32;102182.19;5106443;28;20028;-64
2022/06/11 08:54:37;;;;;;;9.35;2.97;;;;;;;21.36;50.93;102177.63;5106689;28;20028;-63
2022/06/11 08:57:39;;;;;;;7.47;2.40;;;;;;;21.37;51.24;102183.91;5088900;28;20023;-63
2022/06/11 09:00:09;;;;;;;6.07;2.15;;;;;;;21.39;51.16;102173.78;5088067;28;20024;-63
2022/06/11 09:02:53;;;;;;;6.22;2.58;;;;;;;21.40;51.24;102187.13;5088113;28;20020;-63
2022/06/11 09:05:43;;;;;;;4.85;1.60;;;;;;;21.40;51.16;102183.59;5106502;28;20031;-64
2022/06/11 09:08:39;;;;;;;5.95;2.08;;;;;;;21.40;50.89;102189.84;5088590;28;20055;-63
2022/06/11 09:11:10;;;;;;;5.97;2.30;;;;;;;21.41;51.20;102179.91;5106222;28;20043;-63
2022/06/11 09:14:09;;;;;;;8.27;2.92;;;;;;;21.42;50.85;102176.19;5087813;28;20492;-63
2022/06/11 09:17:07;;;;;;;4.85;1.90;;;;;;;21.43;50.96;102177.88;5106009;28;20028;-63
2022/06/11 09:19:50;;;;;;;5.85;2.88;;;;;;;21.44;50.89;102182.28;5126536;28;20032;-64
2022/06/11 09:22:39;;;;;;;5.25;1.92;;;;;;;21.44;50.71;102188.53;5126785;28;20020;-64
2022/06/11 09:25:31;;;;;;;4.88;2.25;;;;;;;21.44;50.50;102180.41;5106668;28;20049;-63
2022/06/11 09:28:15;;;;;;;7.53;2.17;;;;;;;21.46;50.85;102189.25;5088071;28;20028;-64
2022/06/11 09:30:49;;;;;;;6.07;2.70;;;;;;;21.44;50.60;102183.13;5087485;28;20056;-64
2022/06/11 09:33:29;;;;;;;7.55;2.10;;;;;;;21.48;50.43;102188.22;5106162;28;20051;-63
2022/06/11 09:36:03;;;;;;;7.20;2.05;;;;;;;21.38;50.68;102172.94;5087836;28;20027;-64
2022/06/11 09:38:52;;;;;;;6.18;2.10;;;;;;;21.50;50.74;102188.94;5105917;28;20035;-63
2022/06/11 09:41:27;;;;;;;6.22;1.92;;;;;;;21.50;50.67;102189.78;5087617;28;20040;-64
2022/06/11 09:43:55;;;;;;;7.70;2.30;;;;;;;21.51;50.66;102187.94;5105646;28;20031;-65
2022/06/11 09:46:42;;;;;;;4.27;2.00;;;;;;;21.52;50.45;102193.19;5105440;28;20028;-64
2022/06/11 09:49:26;;;;;;;3.10;1.45;;;;;;;21.53;50.55;102188.63;5121351;28;20032;-63
2022/06/11 09:52:04;;;;;;;6.35;2.22;;;;;;;21.50;50.51;102186.25;5126212;28;20108;-64
2022/06/11 09:54:36;;;;;;;4.78;1.98;;;;;;;21.45;50.68;102178.56;5125934;28;20035;-63
2022/06/11 09:57:20;;;;;;;4.72;2.15;;;;;;;21.54;50.41;102199.31;5107771;28;20084;-63
2022/06/11 09:59:48;;;;;;;4.43;1.60;;;;;;;21.55;50.44;102186.63;5125747;28;20055;-63
2022/06/11 10:05:44;;;;;;;6.75;2.42;;;;;;;21.57;50.62;102198.13;5062789;28;20445;-64
2022/06/11 10:08:22;;;;;;;7.05;2.65;;;;;;;21.54;50.20;102198.47;5062665;28;20047;-64
2022/06/11 10:10:49;;;;;;;7.23;2.23;;;;;;;21.57;50.59;102195.41;5046157;28;20033;-63
2022/06/11 10:13:55;;;;;;;5.18;2.10;;;;;;;21.58;50.45;102200.69;5029213;28;20040;-63
2022/06/11 10:16:31;;;;;;;7.03;2.40;;;;;;;21.58;50.42;102197.13;5002717;28;20125;-65
2022/06/11 10:19:04;;;;;;;7.22;3.17;;;;;;;21.58;50.44;102202.53;4986797;28;20045;-63
2022/06/11 10:21:30;;;;;;;7.70;2.83;;;;;;;21.60;50.52;102203.25;5003821;28;20033;-64
2022/06/11 10:24:02;;;;;;;8.75;2.85;;;;;;;21.58;50.36;102192.59;5003429;28;20044;-63
2022/06/11 10:26:35;;;;;;;8.73;3.25;;;;;;;21.61;50.44;102203.06;5003254;28;20088;-64
2022/06/11 10:29:33;;;;;;;6.75;3.13;;;;;;;21.63;50.70;102198.38;4987361;28;20068;-63
2022/06/11 10:32:06;;;;;;;11.57;4.03;;;;;;;21.64;50.54;102196.50;4986781;28;20045;-63
2022/06/11 10:34:34;;;;;;;5.28;2.35;;;;;;;21.65;50.37;102196.34;5003693;28;20034;-63
2022/06/11 10:37:12;;;;;;;5.95;2.55;;;;;;;21.67;50.28;102204.31;5003555;28;20065;-64
2022/06/11 10:40:06;;;;;;;9.02;3.47;;;;;;;21.66;50.13;102195.38;5023701;28;20022;-64
2022/06/11 10:42:45;;;;;;;7.50;3.25;;;;;;;21.70;50.17;102198.56;5019209;28;20080;-62
2022/06/11 10:45:14;;;;;;;;;;;;;;;21.70;50.14;102202.13;5020124;28;20021;-63
2022/06/11 10:47:48;;;;;;;6.43;2.55;;;;;;;21.62;50.32;102193.09;5019576;28;19905;-64
2022/06/11 10:50:17;;;;;;;6.88;2.47;;;;;;;21.71;50.08;102198.44;5060986;28;20032;-63
2022/06/11 10:52:52;;;;;;;5.90;2.50;;;;;;;21.72;50.27;102188.47;5087227;28;20035;-63
2022/06/11 10:55:24;;;;;;;6.40;2.55;;;;;;;21.67;50.36;102188.94;5087250;28;20035;-63
2022/06/11 10:57:51;;;;;;;7.55;2.72;;;;;;;21.75;50.45;102196.28;5070388;28;20835;-64
2022/06/11 11:00:18;;;;;;;7.78;2.42;;;;;;;21.76;50.49;102189.00;5086815;28;20026;-63
2022/06/11 11:02:49;;;;;;;6.63;2.30;;;;;;;21.77;50.50;102194.25;5104846;28;20031;-63
2022/06/11 11:05:16;;;;;;;6.68;2.80;;;;;;;21.76;50.18;102189.84;5104990;28;20023;-63
2022/06/11 11:07:41;;;;;;;6.47;2.67;;;;;;;21.80;50.25;102193.94;5098447;28;20092;-63
2022/06/11 11:10:19;;;;;;;7.38;3.47;;;;;;;21.83;50.26;102190.91;5125215;28;20020;-63
2022/06/11 11:12:45;;;;;;;7.32;2.58;;;;;;;21.80;50.07;102184.97;5124840;28;20036;-63
2022/06/11 11:15:10;;;;;;;8.10;3.10;;;;;;;21.85;49.99;102193.47;5124850;28;20492;-63
2022/06/11 11:17:36;;;;;;;8.43;3.13;;;;;;;21.86;50.07;102195.16;5125196;28;20034;-64
2022/06/11 11:20:35;;;;;;;7.38;2.75;;;;;;;21.87;50.31;102188.75;5106773;28;20464;-64
2022/06/11 11:23:09;;;;;;;6.93;2.65;;;;;;;21.89;49.97;102186.75;5109380;28;20114;-63
2022/06/11 11:25:37;;;;;;;7.10;1.98;;;;;;;21.90;50.33;102194.69;5119253;28;20026;-63
2022/06/11 11:28:05;;;;;;;8.43;2.50;;;;;;;21.89;50.13;102190.28;5090019;28;20051;-63
2022/06/11 11:30:36;;;;;;;6.15;2.05;;;;;;;21.90;50.24;102188.44;5089425;28;20053;-64
2022/06/11 11:33:25;;;;;;;6.45;2.17;;;;;;;21.89;50.29;102187.59;5108334;28;20031;-64
2022/06/11 11:36:08;;;;;;;6.07;2.70;;;;;;;21.91;50.00;102184.72;5108233;28;20149;-63
2022/06/11 11:38:33;;;;;;;4.40;1.85;;;;;;;21.90;50.10;102183.84;5098086;28;20040;-63
2022/06/11 11:41:01;;;;;;;4.90;1.95;;;;;;;21.90;50.24;102185.72;5108170;28;20086;-63
2022/06/11 11:43:35;;;;;;;6.07;1.95;;;;;;;21.91;50.07;102190.97;5107714;28;20024;-65
2022/06/11 11:46:04;;;;;;;6.00;2.50;;;;;;;21.91;50.50;102185.56;5107564;28;20024;-65
2022/06/11 11:48:43;;;;;;;7.55;2.50;;;;;;;21.93;50.48;102188.13;5090218;28;20072;-63